Veersedijk — PBCX — position and weather

sailwx.info

Track history (hours):
 
Tides and Currents Weather Stations Pressure Air Temp Water Temp Dewpoint Dewpoint Depression Visibility Wind Speed Wind Dir Waves Ship Positions

Veersedijk

Last reported at 2018-Feb-13 22:42 UTC. Time now 2018-Feb-19 23:55 UTC.
Position N 49°51' W 000°20'.

Length 132 m; draft 5.2 m.

Type: Cargo ship. MMSI: 244268000.

Date/timePositionNaut miles runAvg speedWind from/ knotsBaromVisibWave heightAir tempDewpointWater temp
2018-Feb-13 22:42N 49°51' W 000°20'1 6.8
2018-Feb-13 22:30N 49°51' W 000°19'2 3.6
2018-Feb-13 21:59N 49°49' W 000°18'3 5.3
2018-Feb-13 21:29N 49°46' W 000°19'3 5.9
2018-Feb-13 20:55N 49°45' W 000°24'1 1.7
2018-Feb-13 20:30N 49°45' W 000°23'1 1.4
2018-Feb-13 20:00N 49°45' W 000°22'1 1.3
2018-Feb-13 19:30N 49°44' W 000°21'1 1.6
2018-Feb-13 19:00N 49°44' W 000°20'1 1.8
2018-Feb-13 18:30N 49°44' W 000°19'1 1.9
2018-Feb-13 18:00N 49°44' W 000°20'0 0.9
2018-Feb-13 17:30N 49°44' W 000°21'1 2.1
2018-Feb-13 17:00N 49°43' W 000°21'1 2.1
2018-Feb-13 16:30N 49°42' W 000°22'1 1.1
2018-Feb-13 16:00N 49°42' W 000°22'1 1.2
2018-Feb-13 15:29N 49°41' W 000°23'0 0.6
2018-Feb-13 15:00N 49°41' W 000°23'1 1.9
2018-Feb-13 14:30N 49°40' W 000°23'1 2.5
2018-Feb-13 13:59N 49°40' W 000°25'2 5.0
2018-Feb-13 13:30N 49°38' W 000°27'1 1.6
2018-Feb-13 13:00N 49°39' W 000°26'1 1.7
2018-Feb-13 12:30N 49°39' W 000°25'1 1.7
2018-Feb-13 12:00N 49°40' W 000°25'1 2.3
2018-Feb-13 11:30N 49°41' W 000°24'0 1.0
2018-Feb-13 11:00N 49°42' W 000°24'0 0.6
2018-Feb-13 10:30N 49°42' W 000°25'0 0.3
2018-Feb-13 09:57N 49°42' W 000°25'0 0.7
2018-Feb-13 09:30N 49°42' W 000°24'2 3.2
2018-Feb-13 09:00N 49°40' W 000°26'3 6.7
2018-Feb-13 08:30N 49°42' W 000°22'0 0.6
2018-Feb-13 07:53N 49°42' W 000°22'0 1.3
2018-Feb-13 07:30N 49°42' W 000°23'0 0.2
2018-Feb-13 07:01N 49°42' W 000°23'2 3.1
2018-Feb-13 06:30N 49°43' W 000°22'2 4.2
2018-Feb-13 06:00N 49°45' W 000°21'1 3.0
2018-Feb-13 05:30N 49°46' W 000°22'1 1.1
2018-Feb-13 05:00N 49°47' W 000°22'1 1.4
2018-Feb-13 04:30N 49°47' W 000°23'1 1.1
2018-Feb-13 04:00N 49°46' W 000°23'0 0.9
2018-Feb-13 03:30N 49°46' W 000°24'0 0.9
2018-Feb-13 02:59N 49°45' W 000°23'0 0.5
2018-Feb-13 02:17N 49°45' W 000°23'0 1.4
2018-Feb-13 01:58N 49°45' W 000°23'1 1.4
2018-Feb-13 01:20N 49°44' W 000°22'0 0.8
2018-Feb-13 01:00N 49°44' W 000°22'0 0.1
2018-Feb-13 00:30N 49°44' W 000°22'0 0.1
2018-Feb-13 00:00N 49°44' W 000°22'1 2.6
2018-Feb-12 23:30N 49°45' W 000°20'2 4.2
2018-Feb-12 23:00N 49°47' W 000°19'2 4.2
2018-Feb-12 22:29N 49°49' W 000°18'3 4.5
2018-Feb-12 21:56N 49°51' W 000°17'88 3.4
2018-Feb-11 20:22N 50°45' E 001°32'58 2.3
2018-Feb-10 18:48N 50°23' E 000°07'3 8.8
2018-Feb-10 18:30N 50°24' E 000°03'1 2.0
2018-Feb-10 18:00N 50°24' E 000°02'4 6.8
2018-Feb-10 17:29N 50°23' W 000°04'4 6.6
2018-Feb-10 16:54N 50°24' W 000°10'1 1.4
2018-Feb-10 16:10N 50°24' W 000°11'0 1.3
2018-Feb-10 15:56N 50°23' W 000°12'1 2.2
2018-Feb-10 15:30N 50°23' W 000°13'1 1.4
2018-Feb-10 15:00N 50°23' W 000°12'1 1.1
2018-Feb-10 14:27N 50°22' W 000°13'0 0.5
2018-Feb-10 13:58N 50°22' W 000°13'22 1.1
2018-Feb-09 18:00N 50°01' W 000°19'6 1.9
2018-Feb-09 15:00N 49°56' W 000°23'1 1.8
2018-Feb-09 14:30N 49°57' W 000°25'1 0.3
2018-Feb-09 10:30N 49°57' W 000°23'  
Track history (hours):
 
Tides and Currents Weather Stations Pressure Air Temp Water Temp Dewpoint Dewpoint Depression Visibility Wind Speed Wind Dir Waves Ship Positions

Veersedijk

Last reported at 2018-Feb-13 22:42 UTC. Time now 2018-Feb-19 23:55 UTC.
Position N 49°51' W 000°20'.

Length 132 m; draft 5.2 m.

Type: Cargo ship. MMSI: 244268000.

Date/timePositionNaut miles runAvg speedWind from/ knotsBaromVisibWave heightAir tempDewpointWater temp
2018-Feb-13 22:42N 49°51' W 000°20'1 6.8
2018-Feb-13 22:30N 49°51' W 000°19'2 3.6
2018-Feb-13 21:59N 49°49' W 000°18'3 5.3
2018-Feb-13 21:29N 49°46' W 000°19'3 5.9
2018-Feb-13 20:55N 49°45' W 000°24'1 1.7
2018-Feb-13 20:30N 49°45' W 000°23'1 1.4
2018-Feb-13 20:00N 49°45' W 000°22'1 1.3
2018-Feb-13 19:30N 49°44' W 000°21'1 1.6
2018-Feb-13 19:00N 49°44' W 000°20'1 1.8
2018-Feb-13 18:30N 49°44' W 000°19'1 1.9
2018-Feb-13 18:00N 49°44' W 000°20'0 0.9
2018-Feb-13 17:30N 49°44' W 000°21'1 2.1
2018-Feb-13 17:00N 49°43' W 000°21'1 2.1
2018-Feb-13 16:30N 49°42' W 000°22'1 1.1
2018-Feb-13 16:00N 49°42' W 000°22'1 1.2
2018-Feb-13 15:29N 49°41' W 000°23'0 0.6
2018-Feb-13 15:00N 49°41' W 000°23'1 1.9
2018-Feb-13 14:30N 49°40' W 000°23'1 2.5
2018-Feb-13 13:59N 49°40' W 000°25'2 5.0
2018-Feb-13 13:30N 49°38' W 000°27'1 1.6
2018-Feb-13 13:00N 49°39' W 000°26'1 1.7
2018-Feb-13 12:30N 49°39' W 000°25'1 1.7
2018-Feb-13 12:00N 49°40' W 000°25'1 2.3
2018-Feb-13 11:30N 49°41' W 000°24'0 1.0
2018-Feb-13 11:00N 49°42' W 000°24'0 0.6
2018-Feb-13 10:30N 49°42' W 000°25'0 0.3
2018-Feb-13 09:57N 49°42' W 000°25'0 0.7
2018-Feb-13 09:30N 49°42' W 000°24'2 3.2
2018-Feb-13 09:00N 49°40' W 000°26'3 6.7
2018-Feb-13 08:30N 49°42' W 000°22'0 0.6
2018-Feb-13 07:53N 49°42' W 000°22'0 1.3
2018-Feb-13 07:30N 49°42' W 000°23'0 0.2
2018-Feb-13 07:01N 49°42' W 000°23'2 3.1
2018-Feb-13 06:30N 49°43' W 000°22'2 4.2
2018-Feb-13 06:00N 49°45' W 000°21'1 3.0
2018-Feb-13 05:30N 49°46' W 000°22'1 1.1
2018-Feb-13 05:00N 49°47' W 000°22'1 1.4
2018-Feb-13 04:30N 49°47' W 000°23'1 1.1
2018-Feb-13 04:00N 49°46' W 000°23'0 0.9
2018-Feb-13 03:30N 49°46' W 000°24'0 0.9
2018-Feb-13 02:59N 49°45' W 000°23'0 0.5
2018-Feb-13 02:17N 49°45' W 000°23'0 1.4
2018-Feb-13 01:58N 49°45' W 000°23'1 1.4
2018-Feb-13 01:20N 49°44' W 000°22'0 0.8
2018-Feb-13 01:00N 49°44' W 000°22'0 0.1
2018-Feb-13 00:30N 49°44' W 000°22'0 0.1
2018-Feb-13 00:00N 49°44' W 000°22'1 2.6
2018-Feb-12 23:30N 49°45' W 000°20'2 4.2
2018-Feb-12 23:00N 49°47' W 000°19'2 4.2
2018-Feb-12 22:29N 49°49' W 000°18'3 4.5
2018-Feb-12 21:56N 49°51' W 000°17'88 3.4
2018-Feb-11 20:22N 50°45' E 001°32'58 2.3
2018-Feb-10 18:48N 50°23' E 000°07'3 8.8
2018-Feb-10 18:30N 50°24' E 000°03'1 2.0
2018-Feb-10 18:00N 50°24' E 000°02'4 6.8
2018-Feb-10 17:29N 50°23' W 000°04'4 6.6
2018-Feb-10 16:54N 50°24' W 000°10'1 1.4
2018-Feb-10 16:10N 50°24' W 000°11'0 1.3
2018-Feb-10 15:56N 50°23' W 000°12'1 2.2
2018-Feb-10 15:30N 50°23' W 000°13'1 1.4
2018-Feb-10 15:00N 50°23' W 000°12'1 1.1
2018-Feb-10 14:27N 50°22' W 000°13'0 0.5
2018-Feb-10 13:58N 50°22' W 000°13'22 1.1
2018-Feb-09 18:00N 50°01' W 000°19'6 1.9
2018-Feb-09 15:00N 49°56' W 000°23'1 1.8
2018-Feb-09 14:30N 49°57' W 000°25'1 0.3
2018-Feb-09 10:30N 49°57' W 000°23'  

Dump ship's entire track history